Time;durP1;ratioP1;P1;durP2;ratioP2;P2;SDS_P1;SDS_P2;PMS_P1;PMS_P2;Temp;Humidity;BMP_temperature;BMP_pressure;BME280_temperature;BME280_humidity;BME280_pressure;Samples;Min_cycle;Max_cycle;Signal;HPM_P1;HPM_P2
2022/04/17 00:02:13;;;;;;;24.73;13.30;;;12.90;99.90;;;;;;5069814;28;20041;-60
2022/04/17 00:04:40;;;;;;;23.63;13.52;;;12.90;99.90;;;;;;5068347;28;20037;-61
2022/04/17 00:07:08;;;;;;;25.15;13.23;;;12.90;99.90;;;;;;5068377;28;20400;-60
2022/04/17 00:09:36;;;;;;;21.52;13.32;;;12.90;99.90;;;;;;5054467;28;20049;-61
2022/04/17 00:12:04;;;;;;;24.55;14.00;;;12.80;99.90;;;;;;5048033;28;20048;-60
2022/04/17 00:14:38;;;;;;;22.83;13.40;;;12.80;99.90;;;;;;5061031;28;20056;-59
2022/04/17 00:17:05;;;;;;;23.50;13.63;;;12.80;99.90;;;;;;5055096;28;20645;-59
2022/04/17 00:19:33;;;;;;;22.67;13.50;;;12.70;99.90;;;;;;5066128;28;20476;-59
2022/04/17 00:22:00;;;;;;;25.15;13.43;;;12.70;99.90;;;;;;5068150;28;20077;-60
2022/04/17 00:24:28;;;;;;;22.58;13.82;;;12.70;99.90;;;;;;5067978;28;20492;-60
2022/04/17 00:26:59;;;;;;;22.95;12.65;;;12.70;99.90;;;;;;5069366;28;20052;-60
2022/04/17 00:29:33;;;;;;;23.70;13.43;;;12.60;99.90;;;;;;5065255;28;20040;-60
2022/04/17 00:32:01;;;;;;;24.77;12.82;;;12.60;99.90;;;;;;5069068;28;20051;-59
2022/04/17 00:34:30;;;;;;;24.60;13.20;;;12.60;99.90;;;;;;5069327;28;20040;-60
2022/04/17 00:36:59;;;;;;;21.88;13.05;;;12.50;99.90;;;;;;5069192;28;20055;-59
2022/04/17 00:39:27;;;;;;;20.42;12.43;;;12.50;99.90;;;;;;5068758;28;20062;-59
2022/04/17 00:41:55;;;;;;;23.38;12.85;;;12.50;99.90;;;;;;5069147;28;20051;-59
2022/04/17 00:44:23;;;;;;;23.63;13.02;;;12.40;99.90;;;;;;5051633;28;20056;-59
2022/04/17 00:46:51;;;;;;;23.48;13.60;;;12.40;99.90;;;;;;5049209;28;20052;-59
2022/04/17 00:49:18;;;;;;;26.60;13.80;;;12.40;99.90;;;;;;5065520;28;20049;-60
2022/04/17 00:51:47;;;;;;;24.88;13.63;;;12.40;99.90;;;;;;5064025;28;20049;-59
2022/04/17 00:54:17;;;;;;;26.30;14.82;;;12.30;99.90;;;;;;5051383;28;20053;-59
2022/04/17 00:56:47;;;;;;;;;;;12.30;99.90;;;;;;5053209;28;20049;-60
2022/04/17 00:59:15;;;;;;;22.95;13.30;;;12.30;99.90;;;;;;5055208;28;19921;-59
2022/04/17 01:01:43;;;;;;;26.73;14.15;;;12.30;99.90;;;;;;5062494;28;20471;-59
2022/04/17 01:04:12;;;;;;;25.75;13.77;;;12.20;99.90;;;;;;5067834;28;20053;-60
2022/04/17 01:06:40;;;;;;;23.67;13.82;;;12.20;99.90;;;;;;5066215;28;20059;-60
2022/04/17 01:09:08;;;;;;;28.80;13.80;;;12.10;99.90;;;;;;5072355;28;20044;-60
2022/04/17 01:11:40;;;;;;;28.80;15.13;;;12.10;99.90;;;;;;5072324;28;20044;-60
2022/04/17 01:14:11;;;;;;;26.05;13.57;;;12.10;99.90;;;;;;5062334;28;20053;-60
2022/04/17 01:16:39;;;;;;;25.77;14.73;;;12.00;99.90;;;;;;5052471;28;20037;-62
2022/04/17 01:19:13;;;;;;;27.45;14.45;;;12.00;99.90;;;;;;5065302;28;20052;-60
2022/04/17 01:21:43;;;;;;;29.73;15.02;;;11.90;99.90;;;;;;5071404;28;20070;-59
2022/04/17 01:27:00;;;;;;;31.65;16.50;;;11.90;99.90;;;;;;5052420;28;20474;-63
2022/04/17 01:29:31;;;;;;;28.52;15.88;;;11.80;99.90;;;;;;5062037;28;20045;-60
2022/04/17 01:32:00;;;;;;;27.20;15.45;;;11.80;99.90;;;;;;5064048;28;20049;-59
2022/04/17 01:34:28;;;;;;;27.38;15.57;;;11.80;99.90;;;;;;5073608;28;20048;-60
2022/04/17 01:36:57;;;;;;;27.23;15.73;;;11.70;99.90;;;;;;5073424;28;20040;-59
2022/04/17 01:39:25;;;;;;;33.05;17.75;;;11.70;99.90;;;;;;5071887;28;20063;-60
2022/04/17 01:41:54;;;;;;;28.08;16.25;;;11.70;99.90;;;;;;5073369;28;20063;-60
2022/04/17 01:44:24;;;;;;;28.80;16.17;;;11.70;99.90;;;;;;5064180;28;20036;-60
2022/04/17 01:46:52;;;;;;;27.88;16.23;;;11.60;99.90;;;;;;5055481;28;20048;-60
2022/04/17 01:49:20;;;;;;;29.02;16.77;;;11.60;99.90;;;;;;5058265;28;20045;-63
2022/04/17 01:51:48;;;;;;;31.65;16.92;;;11.60;99.90;;;;;;5053362;28;20049;-62
2022/04/17 01:54:18;;;;;;;31.52;16.50;;;11.50;99.90;;;;;;5070839;28;20041;-62
2022/04/17 01:56:49;;;;;;;27.27;15.95;;;11.50;99.90;;;;;;5072041;28;20060;-62
2022/04/17 01:59:19;;;;;;;33.22;18.17;;;11.40;99.90;;;;;;5071836;28;20037;-60
2022/04/17 02:01:48;;;;;;;36.83;17.25;;;11.40;99.90;;;;;;5072597;28;20041;-65
2022/04/17 02:04:17;;;;;;;34.40;18.00;;;11.40;99.90;;;;;;5072750;28;20503;-62
2022/04/17 02:06:44;;;;;;;32.83;17.33;;;11.30;99.90;;;;;;5055277;28;20052;-62
2022/04/17 02:09:14;;;;;;;32.65;18.27;;;11.30;99.90;;;;;;5071802;28;20049;-63
2022/04/17 02:11:42;;;;;;;32.40;18.40;;;11.30;99.90;;;;;;5059620;28;20049;-61
2022/04/17 02:14:10;;;;;;;31.75;16.13;;;11.20;99.90;;;;;;5052820;28;20301;-61
2022/04/17 02:16:38;;;;;;;31.77;18.13;;;11.20;99.90;;;;;;5052992;28;20037;-60
2022/04/17 02:19:06;;;;;;;32.72;17.95;;;11.10;99.90;;;;;;5052908;28;20056;-60
2022/04/17 02:21:34;;;;;;;35.15;18.15;;;11.10;99.90;;;;;;5035264;28;20420;-60
2022/04/17 02:24:02;;;;;;;32.30;17.60;;;11.10;99.90;;;;;;5052886;28;20072;-60
2022/04/17 02:26:31;;;;;;;34.75;18.00;;;11.00;99.90;;;;;;5052284;28;20060;-60
2022/04/17 02:29:02;;;;;;;32.95;18.63;;;11.00;99.90;;;;;;5052670;28;20420;-59
2022/04/17 02:31:31;;;;;;;35.78;18.00;;;11.00;99.90;;;;;;5051487;28;20045;-60
2022/04/17 02:33:59;;;;;;;33.53;17.85;;;10.90;99.90;;;;;;5051459;28;20056;-59
2022/04/17 02:36:27;;;;;;;33.10;18.80;;;10.90;99.90;;;;;;5052570;28;20045;-59
2022/04/17 02:38:55;;;;;;;34.45;18.90;;;10.80;99.90;;;;;;5051205;28;20045;-60
2022/04/17 02:41:22;;;;;;;40.22;19.30;;;10.80;99.90;;;;;;5034053;28;20499;-60
2022/04/17 02:43:50;;;;;;;30.67;18.10;;;10.80;99.90;;;;;;5055174;28;20041;-59
2022/04/17 02:47:42;;;;;;;34.92;19.15;;;10.70;99.90;;;;;;5062831;28;20049;-60
2022/04/17 02:49:05;;;;;;;34.85;18.88;;;10.70;99.90;;;;;;5072273;28;20044;-59
2022/04/17 02:51:33;;;;;;;36.13;18.85;;;10.70;99.90;;;;;;5072159;28;20127;-60
2022/04/17 02:54:01;;;;;;;31.80;18.30;;;10.70;99.90;;;;;;5072121;28;20595;-60
2022/04/17 02:56:28;;;;;;;33.13;17.88;;;10.70;99.90;;;;;;5071083;28;20056;-60
2022/04/17 02:58:56;;;;;;;39.55;18.95;;;10.60;99.90;;;;;;5072077;28;20048;-60
2022/04/17 03:06:57;;;;;;;37.80;19.25;;;10.50;99.90;;;;;;5051879;28;20045;-61
2022/04/17 03:09:25;;;;;;;34.47;18.73;;;10.50;99.90;;;;;;5052006;28;20485;-60
2022/04/17 03:11:53;;;;;;;38.42;20.00;;;10.50;99.90;;;;;;5051263;28;20044;-59
2022/04/17 03:14:20;;;;;;;35.83;19.48;;;10.50;99.90;;;;;;5051198;28;20053;-60
2022/04/17 03:16:48;;;;;;;37.33;19.83;;;10.40;99.90;;;;;;5071778;28;20045;-60
2022/04/17 03:19:16;;;;;;;33.65;18.95;;;10.40;99.90;;;;;;5071706;28;20507;-60
2022/04/17 03:21:44;;;;;;;35.35;18.83;;;10.40;99.90;;;;;;5071654;28;20044;-62
2022/04/17 03:24:12;;;;;;;37.78;19.50;;;10.40;99.90;;;;;;5071663;28;20384;-60
2022/04/17 03:26:41;;;;;;;35.40;19.40;;;10.30;99.90;;;;;;5070848;28;20400;-62
2022/04/17 03:29:09;;;;;;;35.50;19.90;;;10.30;99.90;;;;;;5071751;28;20051;-60
2022/04/17 03:31:36;;;;;;;33.03;19.20;;;10.20;99.90;;;;;;5071387;28;20048;-63
2022/04/17 03:34:08;;;;;;;32.40;18.70;;;10.20;99.90;;;;;;5070297;28;20048;-61
2022/04/17 03:36:39;;;;;;;37.03;19.23;;;10.20;99.90;;;;;;5071575;28;20424;-59
2022/04/17 03:39:07;;;;;;;35.25;19.50;;;10.20;99.90;;;;;;5071562;28;20060;-60
2022/04/17 03:41:35;;;;;;;35.78;18.75;;;10.10;99.90;;;;;;5054630;28;20068;-60
2022/04/17 03:44:04;;;;;;;36.83;19.73;;;10.10;99.90;;;;;;5051234;28;20086;-61
2022/04/17 03:46:33;;;;;;;35.65;20.25;;;10.10;99.90;;;;;;5050926;28;20052;-59
2022/04/17 03:49:01;;;;;;;36.00;19.00;;;10.00;99.90;;;;;;5051349;28;20052;-59
2022/04/17 03:51:29;;;;;;;35.05;18.60;;;10.10;99.90;;;;;;5051402;28;20051;-62
2022/04/17 03:53:56;;;;;;;35.70;19.45;;;10.00;99.90;;;;;;5051394;28;20045;-61
2022/04/17 03:56:24;;;;;;;39.47;19.98;;;10.00;99.90;;;;;;5049937;28;20140;-60
2022/04/17 03:58:51;;;;;;;37.65;19.33;;;10.00;99.90;;;;;;5051371;28;20516;-62
2022/04/17 04:01:19;;;;;;;34.72;18.13;;;9.90;99.90;;;;;;5050528;28;20068;-62
2022/04/17 04:03:47;;;;;;;33.13;18.52;;;9.90;99.90;;;;;;5050183;28;20049;-61
2022/04/17 04:06:16;;;;;;;36.63;18.80;;;9.90;99.90;;;;;;5049801;28;20392;-60
2022/04/17 04:08:44;;;;;;;37.53;20.33;;;9.80;99.90;;;;;;5051142;28;20179;-62
2022/04/17 04:11:11;;;;;;;35.03;19.05;;;9.80;99.90;;;;;;5050060;28;20056;-60
2022/04/17 04:13:39;;;;;;;39.63;20.27;;;9.80;99.90;;;;;;5051144;28;20045;-59
2022/04/17 04:16:08;;;;;;;40.25;20.35;;;9.70;99.90;;;;;;5050962;28;20045;-60
2022/04/17 04:18:36;;;;;;;35.67;18.42;;;9.70;99.90;;;;;;5051255;28;20056;-62
2022/04/17 04:21:04;;;;;;;36.85;19.55;;;9.70;99.90;;;;;;5049858;28;20527;-61
2022/04/17 04:23:33;;;;;;;37.63;19.95;;;9.70;99.90;;;;;;5050655;28;20515;-64
2022/04/17 04:26:01;;;;;;;38.05;19.60;;;9.70;99.90;;;;;;5054550;28;20057;-65
2022/04/17 04:28:39;;;;;;;40.53;20.00;;;9.60;99.90;;;;;;5053865;28;20052;-63
2022/04/17 04:31:11;;;;;;;40.63;20.95;;;9.60;99.90;;;;;;5054835;28;20052;-63
2022/04/17 04:33:41;;;;;;;39.53;19.20;;;9.60;99.90;;;;;;5054881;28;20033;-65
2022/04/17 04:36:11;;;;;;;35.63;19.48;;;9.60;99.90;;;;;;5054941;28;20065;-66
2022/04/17 04:38:40;;;;;;;37.13;19.45;;;9.50;99.90;;;;;;5054843;28;20053;-65
2022/04/17 04:41:09;;;;;;;37.05;19.15;;;9.50;99.90;;;;;;5066841;28;20052;-66
2022/04/17 04:43:36;;;;;;;35.38;19.50;;;9.50;99.90;;;;;;5073747;28;20054;-66
2022/04/17 04:46:07;;;;;;;36.95;19.63;;;9.50;99.90;;;;;;5074708;28;20503;-65
2022/04/17 04:51:29;;;;;;;39.10;19.58;;;9.40;99.90;;;;;;5071589;28;20063;-62
2022/04/17 04:53:57;;;;;;;37.67;20.25;;;9.40;99.90;;;;;;5071157;28;20055;-63
2022/04/17 04:56:26;;;;;;;43.00;20.52;;;9.40;99.90;;;;;;5071207;28;20048;-63
2022/04/17 04:58:53;;;;;;;39.50;19.80;;;9.30;99.90;;;;;;5071157;28;20044;-63
2022/04/17 05:01:21;;;;;;;39.65;20.75;;;9.30;99.90;;;;;;5069911;28;20037;-62
2022/04/17 05:03:49;;;;;;;36.47;19.80;;;9.30;99.90;;;;;;5048202;28;20079;-63
2022/04/17 05:06:17;;;;;;;39.33;20.08;;;9.30;99.90;;;;;;5048843;28;20033;-63
2022/04/17 05:08:45;;;;;;;44.28;22.20;;;9.20;99.90;;;;;;5062965;28;20064;-63
2022/04/17 05:11:13;;;;;;;41.33;20.55;;;9.20;99.90;;;;;;5069199;28;20049;-63
2022/04/17 05:13:41;;;;;;;44.10;20.35;;;9.20;99.90;;;;;;5069069;28;20060;-62
2022/04/17 05:16:09;;;;;;;40.70;20.60;;;9.20;99.90;;;;;;5070356;28;20547;-63
2022/04/17 05:18:37;;;;;;;42.30;21.55;;;9.10;99.90;;;;;;5059594;28;20531;-64
2022/04/17 05:21:06;;;;;;;42.30;20.55;;;9.20;99.90;;;;;;5056402;28;20539;-63
2022/04/17 05:23:36;;;;;;;40.58;20.80;;;9.10;99.90;;;;;;5072389;28;20044;-64
2022/04/17 05:26:05;;;;;;;42.47;20.83;;;9.10;99.90;;;;;;5072492;28;20064;-67
2022/04/17 05:28:33;;;;;;;40.63;21.15;;;9.10;99.90;;;;;;5068310;28;20059;-65
2022/04/17 05:31:00;;;;;;;42.58;20.65;;;9.10;99.90;;;;;;5068763;28;20487;-68
2022/04/17 05:33:28;;;;;;;37.70;19.67;;;9.10;99.90;;;;;;5059686;28;20504;-63
2022/04/17 05:35:57;;;;;;;40.53;21.20;;;9.00;99.90;;;;;;5060210;28;20041;-63
2022/04/17 05:38:25;;;;;;;41.70;21.38;;;9.00;99.90;;;;;;5061201;28;20408;-64
2022/04/17 05:40:54;;;;;;;43.13;22.10;;;9.00;99.90;;;;;;5070706;28;20389;-62
2022/04/17 05:43:22;;;;;;;48.13;22.05;;;9.00;99.90;;;;;;5071830;28;20048;-62
2022/04/17 05:45:50;;;;;;;45.25;22.08;;;9.00;99.90;;;;;;5070209;28;20045;-62
2022/04/17 05:48:17;;;;;;;39.40;20.90;;;9.00;99.90;;;;;;5066057;28;20044;-69
2022/04/17 05:50:45;;;;;;;43.40;20.70;;;9.00;99.90;;;;;;5056442;28;20075;-67
2022/04/17 05:53:14;;;;;;;45.63;21.95;;;9.00;99.90;;;;;;5068130;28;20083;-66
2022/04/17 05:55:42;;;;;;;42.07;20.77;;;9.00;99.90;;;;;;5066344;28;20514;-62
2022/04/17 05:58:10;;;;;;;41.28;20.95;;;9.00;99.90;;;;;;5068353;28;20063;-63
2022/04/17 06:00:42;;;;;;;39.95;20.70;;;9.00;99.90;;;;;;5062519;28;20049;-62
2022/04/17 06:03:10;;;;;;;41.53;21.65;;;9.00;99.90;;;;;;5050489;28;20044;-63
2022/04/17 06:05:38;;;;;;;41.80;21.10;;;9.10;99.90;;;;;;5051645;28;20052;-63
2022/04/17 06:08:06;;;;;;;41.80;19.88;;;9.10;99.90;;;;;;5060516;28;20063;-63
2022/04/17 06:10:33;;;;;;;39.17;20.15;;;9.10;99.90;;;;;;5071491;28;20044;-63
2022/04/17 06:13:01;;;;;;;39.17;19.75;;;9.20;99.90;;;;;;5071389;28;20049;-62
2022/04/17 06:15:29;;;;;;;44.55;21.17;;;9.20;99.90;;;;;;5068798;28;20052;-64
2022/04/17 06:17:58;;;;;;;38.30;20.30;;;9.20;99.90;;;;;;5064242;28;20037;-64
2022/04/17 06:20:26;;;;;;;40.58;20.83;;;9.30;99.90;;;;;;5051248;28;20075;-62
2022/04/17 06:22:53;;;;;;;41.47;19.92;;;9.30;99.90;;;;;;5049942;28;20067;-62
2022/04/17 06:25:21;;;;;;;40.13;20.38;;;9.30;99.90;;;;;;5051409;28;20499;-62
2022/04/17 06:27:49;;;;;;;40.25;20.63;;;9.40;99.90;;;;;;5064472;28;20041;-62
2022/04/17 06:30:19;;;;;;;43.40;21.00;;;9.40;99.90;;;;;;5067516;28;20075;-62
2022/04/17 06:32:48;;;;;;;38.45;21.23;;;9.40;99.90;;;;;;5070805;28;20071;-62
2022/04/17 06:35:17;;;;;;;47.28;23.48;;;9.50;99.90;;;;;;5062334;28;20400;-62
2022/04/17 06:37:53;;;;;;;41.90;22.30;;;9.50;99.90;;;;;;5069409;28;20045;-62
2022/04/17 06:40:26;;;;;;;38.92;20.52;;;9.60;99.90;;;;;;5070965;28;20488;-62
2022/04/17 06:43:01;;;;;;;37.53;19.90;;;9.70;99.90;;;;;;5070767;28;20040;-62
2022/04/17 06:45:29;;;;;;;45.55;22.05;;;9.70;99.90;;;;;;5053981;28;20127;-62
2022/04/17 06:47:57;;;;;;;43.45;22.95;;;9.80;99.90;;;;;;5069255;28;20515;-62
2022/04/17 06:50:25;;;;;;;42.58;22.75;;;9.80;99.90;;;;;;5048185;28;20049;-66
2022/04/17 06:52:53;;;;;;;48.15;22.50;;;9.90;99.90;;;;;;5050497;28;20057;-63
2022/04/17 06:55:20;;;;;;;43.20;21.70;;;10.00;99.90;;;;;;5050501;28;20049;-65
2022/04/17 06:57:49;;;;;;;45.20;23.33;;;10.00;99.90;;;;;;5055144;28;20040;-67
2022/04/17 07:00:19;;;;;;;46.33;22.73;;;10.10;99.90;;;;;;5069964;28;20056;-68
2022/04/17 07:02:47;;;;;;;43.05;22.02;;;10.20;99.90;;;;;;5067274;28;20525;-61
2022/04/17 07:05:15;;;;;;;47.42;23.92;;;10.30;99.90;;;;;;5066223;28;20570;-64
2022/04/17 07:07:43;;;;;;;45.00;22.95;;;10.40;99.90;;;;;;5069131;28;20036;-63
2022/04/17 07:10:11;;;;;;;45.63;23.38;;;10.50;99.90;;;;;;5070507;28;20056;-64
2022/04/17 07:12:42;;;;;;;48.35;21.98;;;10.50;99.90;;;;;;5062655;28;20049;-65
2022/04/17 07:15:11;;;;;;;41.85;21.98;;;10.60;99.90;;;;;;5050300;28;20055;-62
2022/04/17 07:17:40;;;;;;;43.58;23.58;;;10.70;99.90;;;;;;5055817;28;20047;-63
2022/04/17 07:20:09;;;;;;;44.20;21.73;;;10.80;99.90;;;;;;5054633;28;20045;-61
2022/04/17 07:22:38;;;;;;;42.40;21.90;;;10.90;99.90;;;;;;5048733;28;20052;-64
2022/04/17 07:25:07;;;;;;;45.50;22.48;;;10.90;99.90;;;;;;5050060;28;20493;-61
2022/04/17 07:27:40;;;;;;;44.20;23.50;;;11.00;99.90;;;;;;5054319;28;20048;-60
2022/04/17 07:30:12;;;;;;;42.85;22.42;;;11.10;99.90;;;;;;5068392;28;20055;-61
2022/04/17 07:32:42;;;;;;;47.30;22.67;;;11.20;99.90;;;;;;5043324;28;20404;-60
2022/04/17 07:35:12;;;;;;;41.78;22.77;;;11.30;99.90;;;;;;5054039;28;20045;-60
2022/04/17 07:37:39;;;;;;;41.90;21.48;;;11.30;99.90;;;;;;5048385;28;20071;-61
2022/04/17 07:40:15;;;;;;;42.40;22.35;;;11.40;99.90;;;;;;5049604;28;20049;-61
2022/04/17 07:42:44;;;;;;;43.00;22.15;;;11.40;99.90;;;;;;5048381;28;20049;-62
2022/04/17 07:45:15;;;;;;;47.85;22.98;;;11.40;99.90;;;;;;5049541;28;20396;-60
2022/04/17 07:47:43;;;;;;;46.30;22.13;;;11.50;99.90;;;;;;5056388;28;20489;-60
2022/04/17 07:50:14;;;;;;;46.33;22.27;;;11.50;99.90;;;;;;5048912;28;20056;-61
2022/04/17 07:52:42;;;;;;;43.08;22.80;;;11.60;99.90;;;;;;5048698;28;20460;-62
2022/04/17 07:55:12;;;;;;;45.17;22.55;;;11.60;99.90;;;;;;5049468;28;20044;-59
2022/04/17 08:00:43;;;;;;;42.47;20.15;;;11.80;99.90;;;;;;5049380;28;20488;-62
2022/04/17 08:06:00;;;;;;;41.50;21.83;;;12.00;99.90;;;;;;5059647;28;20052;-62
2022/04/17 08:08:28;;;;;;;41.30;22.90;;;12.10;99.90;;;;;;5069287;28;20052;-62
2022/04/17 08:10:56;;;;;;;40.70;20.80;;;12.20;99.90;;;;;;5069368;28;20040;-60
2022/04/17 08:13:24;;;;;;;46.45;23.38;;;12.30;99.90;;;;;;5069369;28;20036;-60
2022/04/17 08:15:52;;;;;;;39.85;22.45;;;12.40;99.90;;;;;;5069479;28;20443;-61
2022/04/17 08:18:19;;;;;;;42.65;22.35;;;12.50;99.90;;;;;;5069157;28;20040;-60
2022/04/17 08:20:47;;;;;;;41.88;22.85;;;12.60;99.90;;;;;;5054100;28;20055;-60
2022/04/17 08:23:15;;;;;;;39.33;21.17;;;12.80;99.90;;;;;;5049674;28;20053;-60
2022/04/17 08:25:43;;;;;;;41.47;23.52;;;12.80;99.90;;;;;;5050128;28;20052;-60
2022/04/17 08:28:11;;;;;;;38.58;20.20;;;12.90;99.90;;;;;;5069187;28;20048;-60
2022/04/17 08:30:38;;;;;;;40.65;20.67;;;13.00;99.90;;;;;;5063678;28;20064;-60
2022/04/17 08:33:08;;;;;;;41.42;22.67;;;13.10;99.90;;;;;;5061965;28;20407;-60
2022/04/17 08:35:36;;;;;;;39.45;21.65;;;13.20;99.90;;;;;;5066652;28;20048;-61
2022/04/17 08:38:04;;;;;;;38.47;21.00;;;13.30;99.90;;;;;;5067960;28;20040;-61
2022/04/17 08:40:32;;;;;;;42.63;21.73;;;13.40;99.90;;;;;;5059905;28;20068;-60
2022/04/17 08:43:00;;;;;;;40.45;20.23;;;13.50;99.90;;;;;;5047948;28;20045;-61
2022/04/17 08:45:28;;;;;;;36.47;19.45;;;13.60;99.90;;;;;;5061270;28;20530;-63
2022/04/17 08:47:56;;;;;;;42.53;20.23;;;13.60;99.90;;;;;;5069041;28;20040;-61
2022/04/17 08:50:24;;;;;;;37.05;19.88;;;13.70;99.90;;;;;;5057531;28;20041;-62
2022/04/17 08:52:53;;;;;;;37.30;20.55;;;13.80;99.90;;;;;;5049498;28;20049;-61
2022/04/17 08:55:21;;;;;;;37.55;19.48;;;13.90;99.90;;;;;;5049132;28;20045;-61
2022/04/17 08:57:49;;;;;;;37.17;19.95;;;14.00;99.90;;;;;;5055137;28;20052;-61
2022/04/17 09:00:17;;;;;;;38.05;18.75;;;14.10;99.90;;;;;;5064024;28;20445;-61
2022/04/17 09:02:46;;;;;;;33.50;17.20;;;14.20;99.90;;;;;;5069071;28;20056;-61
2022/04/17 09:05:17;;;;;;;37.22;19.60;;;14.30;99.90;;;;;;5060101;28;20305;-61
2022/04/17 09:07:49;;;;;;;38.20;20.58;;;14.30;99.90;;;;;;5057311;28;20381;-61
2022/04/17 09:10:30;;;;;;;33.45;18.10;;;14.30;99.90;;;;;;5069245;28;20051;-61
2022/04/17 09:13:03;;;;;;;35.72;18.55;;;14.30;99.90;;;;;;5068828;28;20052;-61
2022/04/17 09:15:36;;;;;;;31.92;15.98;;;14.40;99.90;;;;;;5061877;28;20048;-60
2022/04/17 09:18:08;;;;;;;32.53;17.23;;;14.50;99.90;;;;;;5072352;28;20040;-60
2022/04/17 09:20:47;;;;;;;35.90;18.65;;;14.60;99.90;;;;;;5060400;28;20053;-60
2022/04/17 09:23:15;;;;;;;32.35;18.08;;;14.70;99.90;;;;;;5050867;28;20045;-60
2022/04/17 09:25:47;;;;;;;37.80;18.80;;;14.70;99.90;;;;;;5052179;28;20068;-60
2022/04/17 09:28:15;;;;;;;35.55;19.23;;;14.80;99.90;;;;;;5043628;28;20495;-60
2022/04/17 09:30:45;;;;;;;33.72;17.45;;;14.80;99.90;;;;;;5067876;28;20052;-60
2022/04/17 09:33:14;;;;;;;34.85;17.40;;;14.90;99.90;;;;;;5063326;28;20047;-61
2022/04/17 09:35:53;;;;;;;36.77;18.80;;;15.00;99.90;;;;;;5053966;28;20041;-60
2022/04/17 09:38:27;;;;;;;37.00;19.38;;;15.00;99.90;;;;;;5061816;28;20040;-61
2022/04/17 09:41:15;;;;;;;43.38;20.55;;;15.10;99.90;;;;;;5058180;28;20041;-64
2022/04/17 09:43:47;;;;;;;35.72;19.10;;;15.20;99.90;;;;;;5060868;28;20071;-66
2022/04/17 09:46:15;;;;;;;36.65;19.17;;;15.20;99.90;;;;;;5071764;28;20495;-65
2022/04/17 09:48:44;;;;;;;37.42;19.27;;;15.30;99.90;;;;;;5068657;28;20500;-67
2022/04/17 09:51:22;;;;;;;34.83;19.50;;;15.30;99.90;;;;;;5052596;28;20044;-63
2022/04/17 09:54:06;;;;;;;32.47;18.38;;;15.40;99.90;;;;;;5053061;28;20507;-67
2022/04/17 09:56:37;;;;;;;28.70;14.65;;;15.50;99.90;;;;;;5059889;28;20055;-64
2022/04/17 09:59:17;;;;;;;29.75;14.05;;;15.60;99.90;;;;;;5065606;28;20484;-61
2022/04/17 10:01:50;;;;;;;27.60;14.52;;;15.70;99.90;;;;;;5064780;28;20304;-61
2022/04/17 10:04:20;;;;;;;26.90;15.35;;;15.80;99.90;;;;;;5056212;28;20040;-61
2022/04/17 10:06:49;;;;;;;35.88;15.63;;;15.90;99.90;;;;;;5053601;28;20049;-60
2022/04/17 10:09:17;;;;;;;29.00;14.83;;;16.00;99.90;;;;;;5068208;28;20044;-61
2022/04/17 10:11:46;;;;;;;27.13;14.80;;;16.10;99.90;;;;;;5065048;28;20796;-60
2022/04/17 10:14:15;;;;;;;29.45;16.30;;;16.20;99.90;;;;;;5053315;28;20052;-61
2022/04/17 10:16:48;;;;;;;29.33;15.23;;;16.30;99.90;;;;;;5069220;28;20055;-60
2022/04/17 10:19:19;;;;;;;33.22;16.98;;;16.40;99.90;;;;;;5059060;28;20045;-59
2022/04/17 10:21:47;;;;;;;30.48;16.77;;;16.40;99.90;;;;;;5050536;28;20060;-61
2022/04/17 10:24:17;;;;;;;29.92;16.15;;;16.40;99.90;;;;;;5053168;28;20044;-60
2022/04/17 10:26:47;;;;;;;;;;;16.50;99.90;;;;;;5071444;28;20476;-61
2022/04/17 10:29:34;;;;;;;34.67;17.33;;;16.50;99.90;;;;;;5065289;28;20372;-61
2022/04/17 10:32:20;;;;;;;30.15;16.10;;;16.60;99.90;;;;;;5058928;28;20135;-60
2022/04/17 10:35:08;;;;;;;31.85;16.45;;;16.60;99.90;;;;;;5066843;28;20040;-62
2022/04/17 10:37:48;;;;;;;29.27;15.77;;;16.70;99.90;;;;;;5061963;28;20048;-61
2022/04/17 10:40:18;;;;;;;27.27;14.53;;;16.70;99.90;;;;;;5059389;28;20481;-60
2022/04/17 10:42:56;;;;;;;28.77;16.05;;;16.80;99.90;;;;;;5049234;28;20784;-61
2022/04/17 10:45:26;;;;;;;33.67;16.75;;;16.90;99.90;;;;;;5049032;28;20048;-60
2022/04/17 10:48:05;;;;;;;33.70;17.10;;;17.00;99.90;;;;;;5053310;28;20055;-60
2022/04/17 10:50:48;;;;;;;35.28;17.50;;;17.10;99.90;;;;;;5063710;28;20037;-61
2022/04/17 10:53:29;;;;;;;32.60;18.02;;;17.20;99.90;;;;;;5064080;28;20067;-61
2022/04/17 10:56:04;;;;;;;35.08;19.17;;;17.20;99.80;;;;;;5069702;28;20574;-62
2022/04/17 10:58:49;;;;;;;35.08;17.83;;;17.20;99.90;;;;;;5061918;28;20045;-60
2022/04/17 11:01:43;;;;;;;33.45;16.95;;;17.30;99.90;;;;;;5050153;28;20045;-62
2022/04/17 11:04:18;;;;;;;32.00;18.13;;;17.40;99.90;;;;;;5032699;28;20618;-61
2022/04/17 11:06:46;;;;;;;31.95;17.67;;;17.50;99.90;;;;;;5058769;28;20068;-60
2022/04/17 11:09:25;;;;;;;32.38;17.83;;;17.60;99.80;;;;;;5067210;28;20048;-61
2022/04/17 11:11:53;;;;;;;34.65;18.08;;;17.70;99.50;;;;;;5064863;28;20044;-60
2022/04/17 11:14:23;;;;;;;32.53;18.45;;;17.80;99.10;;;;;;5070244;28;20071;-62
2022/04/17 11:16:54;;;;;;;31.30;16.88;;;17.80;98.90;;;;;;5070252;28;20395;-60
2022/04/17 11:19:25;;;;;;;30.38;16.48;;;17.90;99.00;;;;;;5068701;28;20045;-61
2022/04/17 11:21:56;;;;;;;30.08;17.38;;;18.00;98.70;;;;;;5064528;28;20048;-62
2022/04/17 11:24:24;;;;;;;33.90;17.67;;;18.20;98.50;;;;;;5050081;28;20049;-61
2022/04/17 11:26:54;;;;;;;27.13;15.93;;;18.30;98.80;;;;;;5054502;28;20045;-61
2022/04/17 11:29:50;;;;;;;27.35;16.00;;;18.50;98.40;;;;;;5061026;28;20043;-62
2022/04/17 11:32:18;;;;;;;23.02;14.25;;;18.70;97.80;;;;;;5055972;28;20392;-60
2022/04/17 11:34:53;;;;;;;27.98;15.73;;;18.80;97.00;;;;;;5054242;28;20409;-63
2022/04/17 11:37:26;;;;;;;27.38;16.30;;;18.90;96.90;;;;;;5052142;28;20040;-61
2022/04/17 11:39:57;;;;;;;26.10;14.38;;;19.00;95.90;;;;;;5050060;28;20056;-61
2022/04/17 11:42:29;;;;;;;22.42;13.43;;;19.10;95.20;;;;;;5052266;28;20511;-60
2022/04/17 11:45:00;;;;;;;23.83;14.35;;;19.30;95.30;;;;;;5054747;28;20520;-61
2022/04/17 11:47:37;;;;;;;25.15;12.25;;;19.50;93.80;;;;;;5047436;28;20064;-62
2022/04/17 11:50:09;;;;;;;16.88;10.38;;;19.60;93.80;;;;;;5053492;28;20044;-62
2022/04/17 11:52:38;;;;;;;15.65;9.32;;;19.80;92.70;;;;;;5032085;28;20045;-63
2022/04/17 11:55:07;;;;;;;14.02;8.05;;;20.00;90.50;;;;;;5068114;28;20043;-64
2022/04/17 11:57:35;;;;;;;15.30;8.37;;;20.20;86.90;;;;;;5064568;28;20067;-66
2022/04/17 12:00:05;;;;;;;16.95;8.65;;;20.30;85.60;;;;;;5067022;28;20776;-65
2022/04/17 12:02:32;;;;;;;16.98;9.48;;;20.50;84.90;;;;;;5057818;28;20049;-67
2022/04/17 12:05:12;;;;;;;16.10;9.73;;;20.60;83.20;;;;;;5057449;28;20044;-62
2022/04/17 12:07:43;;;;;;;17.33;10.02;;;20.60;81.80;;;;;;5056726;28;20052;-61
2022/04/17 12:10:14;;;;;;;15.15;9.13;;;20.60;79.20;;;;;;5058407;28;20045;-62
2022/04/17 12:12:44;;;;;;;17.70;10.32;;;20.70;80.50;;;;;;5049439;28;20056;-62
2022/04/17 12:15:15;;;;;;;18.75;10.15;;;20.80;80.30;;;;;;5048311;28;20037;-62
2022/04/17 12:17:43;;;;;;;18.98;10.15;;;21.10;79.00;;;;;;5050973;28;20052;-62
2022/04/17 12:20:13;;;;;;;15.80;9.68;;;21.20;79.60;;;;;;5061535;28;20041;-62
2022/04/17 12:22:42;;;;;;;17.15;9.48;;;21.40;80.10;;;;;;5048370;28;20051;-68
2022/04/17 12:25:18;;;;;;;15.73;9.63;;;21.60;78.10;;;;;;5047965;28;20044;-66
2022/04/17 12:27:50;;;;;;;16.95;9.63;;;21.70;75.90;;;;;;5052799;28;20040;-64
2022/04/17 12:30:19;;;;;;;14.93;8.52;;;21.80;75.30;;;;;;5051545;28;20041;-62
2022/04/17 12:32:49;;;;;;;16.13;8.85;;;21.90;75.10;;;;;;5055780;28;20037;-62
2022/04/17 12:35:26;;;;;;;13.95;8.38;;;21.90;73.70;;;;;;5060371;28;20063;-63
2022/04/17 12:38:10;;;;;;;13.02;8.02;;;21.90;72.60;;;;;;5054644;28;20413;-61
2022/04/17 12:40:43;;;;;;;13.80;8.55;;;21.90;72.80;;;;;;5061757;28;20040;-62
2022/04/17 12:43:19;;;;;;;19.10;10.35;;;22.10;72.30;;;;;;5068404;28;20048;-63
2022/04/17 12:46:04;;;;;;;18.38;10.60;;;22.10;72.70;;;;;;5069962;28;20041;-64
2022/04/17 12:48:34;;;;;;;19.50;10.57;;;22.00;73.30;;;;;;5064286;28;20045;-64
2022/04/17 12:51:09;;;;;;;18.30;10.63;;;22.00;74.30;;;;;;5059803;28;20049;-66
2022/04/17 12:53:40;;;;;;;20.17;11.52;;;21.90;73.80;;;;;;5052550;28;20520;-64
2022/04/17 12:56:10;;;;;;;19.10;12.07;;;22.00;73.90;;;;;;5063774;28;20519;-67
2022/04/17 12:58:49;;;;;;;16.55;10.02;;;22.10;74.00;;;;;;5066620;28;20059;-63
2022/04/17 13:01:28;;;;;;;15.20;8.20;;;22.30;73.10;;;;;;5055458;28;20045;-62
2022/04/17 13:04:26;;;;;;;14.57;8.68;;;22.40;71.90;;;;;;5071421;28;20040;-62